sensor_id;sensor_type;location;lat;lon;timestamp;pressure;altitude;pressure_sealevel;temperature;humidity
78909;BME280;68298;37.368;127.108;2023-04-01T00:02:25;100688.41;;;18.33;30.91
78909;BME280;68298;37.368;127.108;2023-04-01T00:04:55;100693.47;;;18.36;31.52
78909;BME280;68298;37.368;127.108;2023-04-01T00:07:26;100685.56;;;18.62;31.52
78909;BME280;68298;37.368;127.108;2023-04-01T00:09:58;100695.34;;;18.47;31.51
78909;BME280;68298;37.368;127.108;2023-04-01T00:12:29;100689.56;;;18.29;32.04
78909;BME280;68298;37.368;127.108;2023-04-01T00:15:00;100694.41;;;18.23;32.18
78909;BME280;68298;37.368;127.108;2023-04-01T00:17:30;100699.44;;;18.38;31.66
78909;BME280;68298;37.368;127.108;2023-04-01T00:20:01;100682.94;;;18.62;31.58
78909;BME280;68298;37.368;127.108;2023-04-01T00:22:32;100694.09;;;18.65;31.99
78909;BME280;68298;37.368;127.108;2023-04-01T00:25:04;100694.81;;;18.67;31.72
78909;BME280;68298;37.368;127.108;2023-04-01T00:27:35;100698.38;;;18.54;31.32
78909;BME280;68298;37.368;127.108;2023-04-01T00:30:06;100709.00;;;18.52;31.66
78909;BME280;68298;37.368;127.108;2023-04-01T00:32:37;100693.25;;;18.65;31.35
78909;BME280;68298;37.368;127.108;2023-04-01T00:35:08;100695.88;;;18.65;32.06
78909;BME280;68298;37.368;127.108;2023-04-01T00:37:39;100699.38;;;18.78;32.01
78909;BME280;68298;37.368;127.108;2023-04-01T00:42:55;100704.41;;;18.68;31.69
78909;BME280;68298;37.368;127.108;2023-04-01T00:45:36;100702.50;;;18.70;31.89
78909;BME280;68298;37.368;127.108;2023-04-01T00:48:17;100702.19;;;18.88;31.94
78909;BME280;68298;37.368;127.108;2023-04-01T00:51:28;100705.31;;;18.93;31.80
78909;BME280;68298;37.368;127.108;2023-04-01T00:54:00;100708.88;;;18.92;31.96
78909;BME280;68298;37.368;127.108;2023-04-01T00:56:56;100700.06;;;18.93;31.63
78909;BME280;68298;37.368;127.108;2023-04-01T00:59:45;100707.94;;;18.93;31.92
78909;BME280;68298;37.368;127.108;2023-04-01T01:02:17;100717.34;;;19.08;31.26
78909;BME280;68298;37.368;127.108;2023-04-01T01:04:48;100710.44;;;19.07;31.86
78909;BME280;68298;37.368;127.108;2023-04-01T01:07:43;100707.47;;;19.12;31.44
78909;BME280;68298;37.368;127.108;2023-04-01T01:10:29;100705.78;;;19.11;31.70
78909;BME280;68298;37.368;127.108;2023-04-01T01:18:28;100707.66;;;19.21;31.96
78909;BME280;68298;37.368;127.108;2023-04-01T01:24:36;100704.28;;;19.19;31.81
78909;BME280;68298;37.368;127.108;2023-04-01T01:27:17;100701.66;;;19.19;31.83
78909;BME280;68298;37.368;127.108;2023-04-01T01:35:38;100699.84;;;19.33;31.54
78909;BME280;68298;37.368;127.108;2023-04-01T01:38:24;100696.91;;;19.25;32.50
78909;BME280;68298;37.368;127.108;2023-04-01T01:41:04;100692.34;;;19.39;31.65
78909;BME280;68298;37.368;127.108;2023-04-01T01:43:44;100686.88;;;19.42;32.39
78909;BME280;68298;37.368;127.108;2023-04-01T01:46:23;100685.78;;;19.45;32.37
78909;BME280;68298;37.368;127.108;2023-04-01T01:48:55;100674.56;;;19.43;32.00
78909;BME280;68298;37.368;127.108;2023-04-01T01:51:27;100676.31;;;19.55;32.07
78909;BME280;68298;37.368;127.108;2023-04-01T01:53:59;100668.63;;;19.65;32.05
78909;BME280;68298;37.368;127.108;2023-04-01T01:56:32;100675.34;;;19.56;31.37
78909;BME280;68298;37.368;127.108;2023-04-01T01:59:08;100659.53;;;19.45;31.63
78909;BME280;68298;37.368;127.108;2023-04-01T02:01:42;100658.59;;;19.46;31.63
78909;BME280;68298;37.368;127.108;2023-04-01T02:04:17;100652.34;;;19.36;31.47
78909;BME280;68298;37.368;127.108;2023-04-01T02:07:02;100653.38;;;19.33;31.83
78909;BME280;68298;37.368;127.108;2023-04-01T02:09:35;100648.59;;;19.51;31.24
78909;BME280;68298;37.368;127.108;2023-04-01T02:12:12;100642.16;;;19.55;31.60
78909;BME280;68298;37.368;127.108;2023-04-01T02:15:06;100642.75;;;19.59;31.59
78909;BME280;68298;37.368;127.108;2023-04-01T02:17:42;100640.56;;;19.53;30.93
78909;BME280;68298;37.368;127.108;2023-04-01T02:20:31;100635.09;;;19.56;31.26
78909;BME280;68298;37.368;127.108;2023-04-01T02:23:04;100631.72;;;19.66;31.29
78909;BME280;68298;37.368;127.108;2023-04-01T02:25:37;100624.53;;;19.68;30.99
78909;BME280;68298;37.368;127.108;2023-04-01T02:28:09;100626.78;;;19.62;31.24
78909;BME280;68298;37.368;127.108;2023-04-01T02:30:42;100626.47;;;19.54;31.40
78909;BME280;68298;37.368;127.108;2023-04-01T02:33:13;100611.03;;;19.62;31.16
78909;BME280;68298;37.368;127.108;2023-04-01T02:35:44;100616.09;;;19.76;30.96
78909;BME280;68298;37.368;127.108;2023-04-01T02:38:15;100618.22;;;19.71;30.90
78909;BME280;68298;37.368;127.108;2023-04-01T02:40:55;100612.00;;;19.72;30.76
78909;BME280;68298;37.368;127.108;2023-04-01T02:43:27;100617.53;;;19.56;30.89
78909;BME280;68298;37.368;127.108;2023-04-01T02:45:58;100612.81;;;19.61;30.90
78909;BME280;68298;37.368;127.108;2023-04-01T02:48:29;100604.59;;;19.77;30.29
78909;BME280;68298;37.368;127.108;2023-04-01T02:51:00;100594.50;;;19.84;30.75
78909;BME280;68298;37.368;127.108;2023-04-01T02:53:30;100599.25;;;19.79;30.49
78909;BME280;68298;37.368;127.108;2023-04-01T02:56:01;100592.66;;;19.73;30.54
78909;BME280;68298;37.368;127.108;2023-04-01T02:58:31;100594.69;;;19.69;30.33
78909;BME280;68298;37.368;127.108;2023-04-01T03:01:02;100589.66;;;19.66;30.41
78909;BME280;68298;37.368;127.108;2023-04-01T03:03:32;100585.97;;;19.80;30.52
78909;BME280;68298;37.368;127.108;2023-04-01T03:06:12;100586.34;;;19.87;30.07
78909;BME280;68298;37.368;127.108;2023-04-01T03:08:43;100572.50;;;19.85;30.50
78909;BME280;68298;37.368;127.108;2023-04-01T03:11:14;100561.97;;;19.85;30.02
78909;BME280;68298;37.368;127.108;2023-04-01T03:13:44;100563.78;;;19.84;30.29
78909;BME280;68298;37.368;127.108;2023-04-01T03:16:16;100559.44;;;19.72;30.09
78909;BME280;68298;37.368;127.108;2023-04-01T03:18:47;100546.91;;;19.76;30.07
78909;BME280;68298;37.368;127.108;2023-04-01T03:21:20;100542.75;;;19.95;29.97
78909;BME280;68298;37.368;127.108;2023-04-01T03:23:52;100539.53;;;20.03;30.29
78909;BME280;68298;37.368;127.108;2023-04-01T03:26:23;100534.97;;;19.94;29.98
78909;BME280;68298;37.368;127.108;2023-04-01T03:28:53;100526.72;;;19.87;30.55
78909;BME280;68298;37.368;127.108;2023-04-01T03:31:24;100533.78;;;19.98;29.98
78909;BME280;68298;37.368;127.108;2023-04-01T03:33:57;100528.88;;;20.05;30.44
78909;BME280;68298;37.368;127.108;2023-04-01T03:36:27;100521.22;;;20.02;30.30
78909;BME280;68298;37.368;127.108;2023-04-01T03:38:59;100510.56;;;19.92;30.21
78909;BME280;68298;37.368;127.108;2023-04-01T03:41:37;100516.69;;;20.04;30.36
78909;BME280;68298;37.368;127.108;2023-04-01T03:44:08;100509.03;;;20.12;29.65
78909;BME280;68298;37.368;127.108;2023-04-01T03:46:39;100503.41;;;20.05;30.29
78909;BME280;68298;37.368;127.108;2023-04-01T03:49:10;100507.84;;;20.05;29.55
78909;BME280;68298;37.368;127.108;2023-04-01T03:51:42;100502.72;;;20.03;29.76
78909;BME280;68298;37.368;127.108;2023-04-01T03:54:13;100495.41;;;19.95;29.52
78909;BME280;68298;37.368;127.108;2023-04-01T03:56:44;100497.22;;;19.95;30.00
78909;BME280;68298;37.368;127.108;2023-04-01T03:59:15;100492.91;;;20.05;29.85
78909;BME280;68298;37.368;127.108;2023-04-01T04:01:47;100483.09;;;20.18;29.42
78909;BME280;68298;37.368;127.108;2023-04-01T04:04:18;100481.41;;;20.17;29.49
78909;BME280;68298;37.368;127.108;2023-04-01T04:06:48;100476.63;;;20.11;29.71
78909;BME280;68298;37.368;127.108;2023-04-01T04:09:22;100469.84;;;20.09;29.19
78909;BME280;68298;37.368;127.108;2023-04-01T04:11:54;100467.78;;;20.01;29.99
78909;BME280;68298;37.368;127.108;2023-04-01T04:14:25;100464.47;;;19.99;30.04
78909;BME280;68298;37.368;127.108;2023-04-01T04:16:57;100456.06;;;20.16;29.67
78909;BME280;68298;37.368;127.108;2023-04-01T04:19:32;100460.84;;;20.22;29.34
78909;BME280;68298;37.368;127.108;2023-04-01T04:22:06;100451.03;;;20.24;29.89
78909;BME280;68298;37.368;127.108;2023-04-01T04:24:37;100456.78;;;20.18;29.91
78909;BME280;68298;37.368;127.108;2023-04-01T04:27:11;100447.94;;;20.19;29.41
78909;BME280;68298;37.368;127.108;2023-04-01T04:29:56;100446.03;;;20.10;29.25
78909;BME280;68298;37.368;127.108;2023-04-01T04:32:27;100443.88;;;20.15;29.29
78909;BME280;68298;37.368;127.108;2023-04-01T04:34:59;100434.88;;;20.29;28.90
78909;BME280;68298;37.368;127.108;2023-04-01T04:37:30;100430.06;;;20.34;29.49
78909;BME280;68298;37.368;127.108;2023-04-01T04:40:00;100415.25;;;20.33;29.30
78909;BME280;68298;37.368;127.108;2023-04-01T04:42:31;100420.88;;;20.29;29.85
78909;BME280;68298;37.368;127.108;2023-04-01T04:45:09;100415.38;;;20.32;29.08
78909;BME280;68298;37.368;127.108;2023-04-01T04:47:46;100407.72;;;20.29;28.70
78909;BME280;68298;37.368;127.108;2023-04-01T04:50:17;100414.06;;;20.26;28.96
78909;BME280;68298;37.368;127.108;2023-04-01T04:52:49;100399.97;;;20.27;29.03
78909;BME280;68298;37.368;127.108;2023-04-01T04:55:20;100390.25;;;20.39;28.50
78909;BME280;68298;37.368;127.108;2023-04-01T04:58:09;100386.88;;;20.48;29.03
78909;BME280;68298;37.368;127.108;2023-04-01T05:00:42;100379.47;;;20.42;29.15
78909;BME280;68298;37.368;127.108;2023-04-01T05:03:20;100370.47;;;20.44;28.67
78909;BME280;68298;37.368;127.108;2023-04-01T05:05:53;100378.19;;;20.36;28.66
78909;BME280;68298;37.368;127.108;2023-04-01T05:08:24;100374.69;;;20.36;28.76
78909;BME280;68298;37.368;127.108;2023-04-01T05:10:54;100366.09;;;20.34;28.52
78909;BME280;68298;37.368;127.108;2023-04-01T05:13:25;100367.00;;;20.44;28.54
78909;BME280;68298;37.368;127.108;2023-04-01T05:15:55;100359.09;;;20.55;28.46
78909;BME280;68298;37.368;127.108;2023-04-01T05:18:26;100358.25;;;20.55;29.25
78909;BME280;68298;37.368;127.108;2023-04-01T05:20:56;100355.06;;;20.51;29.12
78909;BME280;68298;37.368;127.108;2023-04-01T05:23:27;100352.16;;;20.54;28.91
78909;BME280;68298;37.368;127.108;2023-04-01T05:25:57;100347.19;;;20.51;28.58
78909;BME280;68298;37.368;127.108;2023-04-01T05:28:28;100346.59;;;20.47;29.45
78909;BME280;68298;37.368;127.108;2023-04-01T05:31:00;100344.66;;;20.49;28.14
78909;BME280;68298;37.368;127.108;2023-04-01T05:33:35;100334.34;;;20.58;28.53
78909;BME280;68298;37.368;127.108;2023-04-01T05:36:15;100336.59;;;20.62;28.34
78909;BME280;68298;37.368;127.108;2023-04-01T05:38:46;100333.50;;;20.57;28.94
78909;BME280;68298;37.368;127.108;2023-04-01T05:41:19;100339.91;;;20.64;28.25
78909;BME280;68298;37.368;127.108;2023-04-01T05:43:49;100329.91;;;20.58;28.73
78909;BME280;68298;37.368;127.108;2023-04-01T05:46:52;100329.44;;;20.53;28.88
78909;BME280;68298;37.368;127.108;2023-04-01T05:49:26;100321.16;;;20.58;28.82
78909;BME280;68298;37.368;127.108;2023-04-01T05:51:57;100325.28;;;20.71;28.08
78909;BME280;68298;37.368;127.108;2023-04-01T05:54:28;100315.38;;;20.64;28.70
78909;BME280;68298;37.368;127.108;2023-04-01T05:56:59;100313.97;;;20.60;27.83
78909;BME280;68298;37.368;127.108;2023-04-01T05:59:29;100314.41;;;20.65;27.54
78909;BME280;68298;37.368;127.108;2023-04-01T06:02:01;100304.16;;;20.62;28.97
78909;BME280;68298;37.368;127.108;2023-04-01T06:04:39;100298.75;;;20.63;28.20
78909;BME280;68298;37.368;127.108;2023-04-01T06:07:19;100291.31;;;20.68;28.10
78909;BME280;68298;37.368;127.108;2023-04-01T06:09:49;100294.09;;;20.67;28.93
78909;BME280;68298;37.368;127.108;2023-04-01T06:12:44;100292.41;;;20.66;29.16
78909;BME280;68298;37.368;127.108;2023-04-01T06:15:41;100297.53;;;20.67;28.71
78909;BME280;68298;37.368;127.108;2023-04-01T06:26:51;100275.66;;;20.67;29.22
78909;BME280;68298;37.368;127.108;2023-04-01T06:32:46;100273.53;;;20.82;29.50
78909;BME280;68298;37.368;127.108;2023-04-01T06:47:32;100261.78;;;20.65;28.85
78909;BME280;68298;37.368;127.108;2023-04-01T06:50:40;100265.00;;;20.68;29.05
78909;BME280;68298;37.368;127.108;2023-04-01T06:57:24;100261.28;;;20.71;29.52
78909;BME280;68298;37.368;127.108;2023-04-01T07:00:02;100262.25;;;20.70;29.39
78909;BME280;68298;37.368;127.108;2023-04-01T07:05:37;100251.97;;;20.67;29.56
78909;BME280;68298;37.368;127.108;2023-04-01T07:08:13;100258.31;;;20.64;28.93
78909;BME280;68298;37.368;127.108;2023-04-01T07:11:05;100252.53;;;20.70;29.61
78909;BME280;68298;37.368;127.108;2023-04-01T07:16:41;100256.50;;;20.65;30.19
78909;BME280;68298;37.368;127.108;2023-04-01T07:19:34;100242.28;;;20.67;29.99
78909;BME280;68298;37.368;127.108;2023-04-01T07:22:33;100238.41;;;20.71;29.96
78909;BME280;68298;37.368;127.108;2023-04-01T07:25:51;100251.31;;;20.74;29.61
78909;BME280;68298;37.368;127.108;2023-04-01T07:28:31;100248.13;;;20.71;29.54
78909;BME280;68298;37.368;127.108;2023-04-01T07:36:48;100243.09;;;20.68;29.76
78909;BME280;68298;37.368;127.108;2023-04-01T08:05:05;100240.66;;;20.55;28.44
78909;BME280;68298;37.368;127.108;2023-04-01T08:10:55;100243.56;;;20.52;29.08
78909;BME280;68298;37.368;127.108;2023-04-01T08:17:09;100252.69;;;20.48;29.12
78909;BME280;68298;37.368;127.108;2023-04-01T08:25:22;100252.06;;;20.44;28.98
78909;BME280;68298;37.368;127.108;2023-04-01T08:38:41;100271.16;;;20.37;28.30
78909;BME280;68298;37.368;127.108;2023-04-01T08:53:14;100274.41;;;20.29;29.14
78909;BME280;68298;37.368;127.108;2023-04-01T09:14:22;100281.41;;;20.19;29.34
78909;BME280;68298;37.368;127.108;2023-04-01T09:37:45;100291.84;;;20.09;29.44
78909;BME280;68298;37.368;127.108;2023-04-01T09:46:14;100302.97;;;20.02;28.61
78909;BME280;68298;37.368;127.108;2023-04-01T10:03:33;100310.38;;;19.96;29.18
78909;BME280;68298;37.368;127.108;2023-04-01T10:17:37;100320.59;;;19.90;29.15
78909;BME280;68298;37.368;127.108;2023-04-01T10:38:10;100331.97;;;19.79;29.56
78909;BME280;68298;37.368;127.108;2023-04-01T10:40:55;100339.84;;;19.79;29.56
78909;BME280;68298;37.368;127.108;2023-04-01T11:00:05;100358.72;;;19.73;28.32
78909;BME280;68298;37.368;127.108;2023-04-01T11:20:02;100377.00;;;19.63;29.21
78909;BME280;68298;37.368;127.108;2023-04-01T11:22:45;100382.25;;;19.63;28.83
78909;BME280;68298;37.368;127.108;2023-04-01T11:40:37;100401.13;;;19.57;28.91
78909;BME280;68298;37.368;127.108;2023-04-01T11:43:32;100399.44;;;19.56;28.38
78909;BME280;68298;37.368;127.108;2023-04-01T11:46:37;100392.53;;;19.55;28.42
78909;BME280;68298;37.368;127.108;2023-04-01T11:55:19;100411.28;;;19.51;28.20
78909;BME280;68298;37.368;127.108;2023-04-01T12:04:06;100414.84;;;19.49;28.80
78909;BME280;68298;37.368;127.108;2023-04-01T12:30:11;100442.53;;;19.42;29.15
78909;BME280;68298;37.368;127.108;2023-04-01T12:32:55;100453.06;;;19.42;28.98
78909;BME280;68298;37.368;127.108;2023-04-01T12:35:52;100452.22;;;19.42;28.98
78909;BME280;68298;37.368;127.108;2023-04-01T12:47:11;100456.75;;;19.40;28.91
78909;BME280;68298;37.368;127.108;2023-04-01T12:52:52;100456.25;;;19.35;29.16
78909;BME280;68298;37.368;127.108;2023-04-01T12:55:39;100459.00;;;19.33;29.48
78909;BME280;68298;37.368;127.108;2023-04-01T13:38:58;100523.56;;;19.25;29.89
78909;BME280;68298;37.368;127.108;2023-04-01T13:50:07;100517.69;;;19.21;29.48
78909;BME280;68298;37.368;127.108;2023-04-01T13:52:54;100512.81;;;19.16;29.37
78909;BME280;68298;37.368;127.108;2023-04-01T13:55:36;100499.06;;;19.13;29.72
78909;BME280;68298;37.368;127.108;2023-04-01T14:18:08;100524.59;;;19.11;29.57
78909;BME280;68298;37.368;127.108;2023-04-01T14:26:21;100533.31;;;19.11;29.85
78909;BME280;68298;37.368;127.108;2023-04-01T14:31:59;100531.63;;;19.10;29.88
78909;BME280;68298;37.368;127.108;2023-04-01T14:37:36;100542.47;;;19.06;29.73
78909;BME280;68298;37.368;127.108;2023-04-01T14:43:20;100554.78;;;19.05;29.99
78909;BME280;68298;37.368;127.108;2023-04-01T14:54:33;100566.56;;;19.00;29.88
78909;BME280;68298;37.368;127.108;2023-04-01T14:57:27;100561.19;;;19.01;30.21
78909;BME280;68298;37.368;127.108;2023-04-01T15:00:15;100567.53;;;18.99;30.24
78909;BME280;68298;37.368;127.108;2023-04-01T15:05:39;100570.16;;;18.99;29.91
78909;BME280;68298;37.368;127.108;2023-04-01T15:08:29;100569.06;;;19.01;30.00
78909;BME280;68298;37.368;127.108;2023-04-01T15:11:21;100573.47;;;19.01;29.87
78909;BME280;68298;37.368;127.108;2023-04-01T15:13:56;100572.97;;;18.95;29.91
78909;BME280;68298;37.368;127.108;2023-04-01T15:30:56;100586.22;;;18.94;30.25
78909;BME280;68298;37.368;127.108;2023-04-01T15:33:48;100588.09;;;18.92;30.18
78909;BME280;68298;37.368;127.108;2023-04-01T15:36:44;100590.66;;;18.93;30.08
78909;BME280;68298;37.368;127.108;2023-04-01T15:39:31;100589.91;;;18.91;30.04
78909;BME280;68298;37.368;127.108;2023-04-01T15:42:18;100596.84;;;18.92;29.87
78909;BME280;68298;37.368;127.108;2023-04-01T15:50:26;100596.00;;;18.92;30.20
78909;BME280;68298;37.368;127.108;2023-04-01T15:56:24;100602.53;;;18.86;30.07
78909;BME280;68298;37.368;127.108;2023-04-01T16:16:48;100609.56;;;18.86;29.68
78909;BME280;68298;37.368;127.108;2023-04-01T16:30:35;100614.19;;;18.82;29.62
78909;BME280;68298;37.368;127.108;2023-04-01T16:33:13;100610.72;;;18.82;29.50
78909;BME280;68298;37.368;127.108;2023-04-01T16:41:35;100619.56;;;18.81;29.06
78909;BME280;68298;37.368;127.108;2023-04-01T16:44:24;100613.59;;;18.79;29.03
78909;BME280;68298;37.368;127.108;2023-04-01T16:47:11;100625.00;;;18.78;29.08
78909;BME280;68298;37.368;127.108;2023-04-01T16:50:18;100623.25;;;18.78;29.08
78909;BME280;68298;37.368;127.108;2023-04-01T16:53:18;100624.09;;;18.79;29.30
78909;BME280;68298;37.368;127.108;2023-04-01T16:58:27;100610.97;;;18.79;29.03
78909;BME280;68298;37.368;127.108;2023-04-01T17:01:19;100619.75;;;18.78;29.23
78909;BME280;68298;37.368;127.108;2023-04-01T17:04:04;100612.75;;;18.78;29.01
78909;BME280;68298;37.368;127.108;2023-04-01T17:07:01;100612.84;;;18.77;28.88
78909;BME280;68298;37.368;127.108;2023-04-01T17:12:34;100613.91;;;18.74;29.24
78909;BME280;68298;37.368;127.108;2023-04-01T17:15:19;100617.56;;;18.71;29.06
78909;BME280;68298;37.368;127.108;2023-04-01T17:17:58;100615.78;;;18.72;28.75
78909;BME280;68298;37.368;127.108;2023-04-01T17:45:54;100624.41;;;18.61;28.47
78909;BME280;68298;37.368;127.108;2023-04-01T17:51:43;100625.03;;;18.65;28.54
78909;BME280;68298;37.368;127.108;2023-04-01T17:54:37;100618.94;;;18.64;28.89
78909;BME280;68298;37.368;127.108;2023-04-01T18:11:25;100632.97;;;18.63;28.45
78909;BME280;68298;37.368;127.108;2023-04-01T18:14:20;100625.22;;;18.62;28.55
78909;BME280;68298;37.368;127.108;2023-04-01T18:20:14;100639.31;;;18.61;28.61
78909;BME280;68298;37.368;127.108;2023-04-01T18:23:12;100640.34;;;18.58;28.16
78909;BME280;68298;37.368;127.108;2023-04-01T18:25:48;100644.66;;;18.59;28.56
78909;BME280;68298;37.368;127.108;2023-04-01T18:31:26;100644.34;;;18.51;28.10
78909;BME280;68298;37.368;127.108;2023-04-01T18:34:37;100652.03;;;18.54;28.71
78909;BME280;68298;37.368;127.108;2023-04-01T18:41:07;100658.19;;;18.53;28.95
78909;BME280;68298;37.368;127.108;2023-04-01T18:46:54;100681.19;;;18.50;28.33
78909;BME280;68298;37.368;127.108;2023-04-01T18:52:37;100684.75;;;18.49;28.41
78909;BME280;68298;37.368;127.108;2023-04-01T18:58:26;100694.31;;;18.50;28.52
78909;BME280;68298;37.368;127.108;2023-04-01T19:04:00;100684.75;;;18.49;28.60
78909;BME280;68298;37.368;127.108;2023-04-01T19:06:54;100694.31;;;18.50;28.79
78909;BME280;68298;37.368;127.108;2023-04-01T19:09:43;100703.03;;;18.50;28.96
78909;BME280;68298;37.368;127.108;2023-04-01T19:21:06;100707.63;;;18.46;28.46
78909;BME280;68298;37.368;127.108;2023-04-01T19:38:14;100716.53;;;18.44;28.34
78909;BME280;68298;37.368;127.108;2023-04-01T19:52:00;100731.75;;;18.39;29.29
78909;BME280;68298;37.368;127.108;2023-04-01T20:00:41;100733.75;;;18.35;28.44
78909;BME280;68298;37.368;127.108;2023-04-01T20:03:30;100733.84;;;18.34;28.83
78909;BME280;68298;37.368;127.108;2023-04-01T20:07:13;100741.72;;;18.34;29.23
78909;BME280;68298;37.368;127.108;2023-04-01T20:09:35;100737.31;;;18.34;28.89
78909;BME280;68298;37.368;127.108;2023-04-01T20:14:53;100747.91;;;18.33;28.66
78909;BME280;68298;37.368;127.108;2023-04-01T20:17:26;100753.25;;;18.31;28.65
78909;BME280;68298;37.368;127.108;2023-04-01T20:20:29;100757.69;;;18.31;28.55
78909;BME280;68298;37.368;127.108;2023-04-01T20:26:07;100760.59;;;18.26;28.54
78909;BME280;68298;37.368;127.108;2023-04-01T20:31:41;100770.16;;;18.27;28.52
78909;BME280;68298;37.368;127.108;2023-04-01T20:37:46;100773.06;;;18.23;28.52
78909;BME280;68298;37.368;127.108;2023-04-01T20:40:29;100773.91;;;18.23;28.83
78909;BME280;68298;37.368;127.108;2023-04-01T20:43:28;100781.88;;;18.22;28.84
78909;BME280;68298;37.368;127.108;2023-04-01T20:46:39;100783.56;;;18.23;28.59
78909;BME280;68298;37.368;127.108;2023-04-01T20:49:31;100776.66;;;18.22;28.38
78909;BME280;68298;37.368;127.108;2023-04-01T20:57:51;100793.31;;;18.20;27.98
78909;BME280;68298;37.368;127.108;2023-04-01T21:06:27;100807.34;;;18.19;28.56
78909;BME280;68298;37.368;127.108;2023-04-01T21:12:01;100817.00;;;18.19;28.49
78909;BME280;68298;37.368;127.108;2023-04-01T21:23:08;100814.91;;;18.11;28.97
78909;BME280;68298;37.368;127.108;2023-04-01T21:29:10;100820.88;;;18.13;28.29
78909;BME280;68298;37.368;127.108;2023-04-01T21:40:32;100824.63;;;18.09;28.47
78909;BME280;68298;37.368;127.108;2023-04-01T21:48:53;100849.28;;;18.07;28.62
78909;BME280;68298;37.368;127.108;2023-04-01T21:51:53;100846.75;;;18.05;28.89
78909;BME280;68298;37.368;127.108;2023-04-01T21:54:50;100852.81;;;18.06;28.76
78909;BME280;68298;37.368;127.108;2023-04-01T22:05:51;100868.28;;;17.96;28.35
78909;BME280;68298;37.368;127.108;2023-04-01T22:09:09;100865.69;;;17.96;28.76
78909;BME280;68298;37.368;127.108;2023-04-01T22:14:43;100882.81;;;18.02;29.03
78909;BME280;68298;37.368;127.108;2023-04-01T22:28:29;100895.94;;;18.02;29.02
78909;BME280;68298;37.368;127.108;2023-04-01T22:31:04;100902.09;;;18.01;29.44
78909;BME280;68298;37.368;127.108;2023-04-01T22:39:24;100922.03;;;18.03;29.24
78909;BME280;68298;37.368;127.108;2023-04-01T22:47:48;100937.66;;;18.05;28.75
78909;BME280;68298;37.368;127.108;2023-04-01T22:50:26;100936.16;;;18.01;28.71
78909;BME280;68298;37.368;127.108;2023-04-01T22:53:25;100932.91;;;17.97;29.14
78909;BME280;68298;37.368;127.108;2023-04-01T22:56:03;100942.16;;;18.03;28.74
78909;BME280;68298;37.368;127.108;2023-04-01T22:58:51;100941.22;;;18.04;29.22
78909;BME280;68298;37.368;127.108;2023-04-01T23:01:28;100953.38;;;18.05;28.74
78909;BME280;68298;37.368;127.108;2023-04-01T23:04:03;100956.13;;;18.03;28.53
78909;BME280;68298;37.368;127.108;2023-04-01T23:06:39;100951.81;;;18.02;28.12
78909;BME280;68298;37.368;127.108;2023-04-01T23:09:33;100961.66;;;17.99;28.14
78909;BME280;68298;37.368;127.108;2023-04-01T23:12:09;100966.59;;;18.03;28.95
78909;BME280;68298;37.368;127.108;2023-04-01T23:14:46;100968.38;;;18.03;28.88
78909;BME280;68298;37.368;127.108;2023-04-01T23:20:28;100970.91;;;18.04;29.26
78909;BME280;68298;37.368;127.108;2023-04-01T23:28:49;100972.56;;;18.05;28.47
78909;BME280;68298;37.368;127.108;2023-04-01T23:42:05;100980.16;;;18.10;28.86
78909;BME280;68298;37.368;127.108;2023-04-01T23:44:37;100983.72;;;18.09;28.08
78909;BME280;68298;37.368;127.108;2023-04-01T23:47:14;100981.84;;;18.11;28.58
78909;BME280;68298;37.368;127.108;2023-04-01T23:49:50;100988.03;;;18.10;28.57
78909;BME280;68298;37.368;127.108;2023-04-01T23:53:08;100997.50;;;18.12;28.87
78909;BME280;68298;37.368;127.108;2023-04-01T23:55:34;100998.34;;;18.13;28.84
